sensor_id;sensor_type;location;lat;lon;timestamp;pressure;altitude;pressure_sealevel;temperature;humidity
26489;BME280;14169;43.684;10.484;2023-02-10T00:01:13;103528.78;;;1.78;100.00
26489;BME280;14169;43.684;10.484;2023-02-10T00:03:39;103522.03;;;1.80;100.00
26489;BME280;14169;43.684;10.484;2023-02-10T00:06:06;103521.81;;;1.75;100.00
26489;BME280;14169;43.684;10.484;2023-02-10T00:08:35;103526.84;;;1.74;100.00
26489;BME280;14169;43.684;10.484;2023-02-10T00:11:04;103528.69;;;1.76;100.00
26489;BME280;14169;43.684;10.484;2023-02-10T00:13:31;103529.81;;;1.81;100.00
26489;BME280;14169;43.684;10.484;2023-02-10T00:15:58;103526.50;;;1.84;100.00
26489;BME280;14169;43.684;10.484;2023-02-10T00:18:24;103518.72;;;1.82;100.00
26489;BME280;14169;43.684;10.484;2023-02-10T00:20:49;103529.16;;;1.85;100.00
26489;BME280;14169;43.684;10.484;2023-02-10T00:23:15;103522.25;;;1.84;100.00
26489;BME280;14169;43.684;10.484;2023-02-10T00:25:40;103510.22;;;1.83;100.00
26489;BME280;14169;43.684;10.484;2023-02-10T00:28:06;103515.19;;;1.80;100.00
26489;BME280;14169;43.684;10.484;2023-02-10T00:30:32;103518.72;;;1.82;100.00
26489;BME280;14169;43.684;10.484;2023-02-10T00:32:57;103515.25;;;1.82;100.00
26489;BME280;14169;43.684;10.484;2023-02-10T00:35:23;103522.31;;;1.86;100.00
26489;BME280;14169;43.684;10.484;2023-02-10T00:37:48;103508.50;;;1.84;100.00
26489;BME280;14169;43.684;10.484;2023-02-10T00:40:14;103518.66;;;1.81;100.00
26489;BME280;14169;43.684;10.484;2023-02-10T00:42:40;103515.56;;;1.88;100.00
26489;BME280;14169;43.684;10.484;2023-02-10T00:45:05;103517.47;;;1.92;100.00
26489;BME280;14169;43.684;10.484;2023-02-10T00:47:31;103516.69;;;1.93;100.00
26489;BME280;14169;43.684;10.484;2023-02-10T00:49:56;103511.47;;;1.91;100.00
26489;BME280;14169;43.684;10.484;2023-02-10T00:52:22;103512.25;;;1.90;100.00
26489;BME280;14169;43.684;10.484;2023-02-10T00:54:48;103509.75;;;1.92;100.00
26489;BME280;14169;43.684;10.484;2023-02-10T00:57:13;103510.59;;;1.91;100.00
26489;BME280;14169;43.684;10.484;2023-02-10T00:59:39;103505.94;;;1.84;100.00
26489;BME280;14169;43.684;10.484;2023-02-10T01:02:04;103505.94;;;1.84;100.00
26489;BME280;14169;43.684;10.484;2023-02-10T01:04:30;103507.78;;;1.86;100.00
26489;BME280;14169;43.684;10.484;2023-02-10T01:06:55;103494.50;;;1.77;100.00
26489;BME280;14169;43.684;10.484;2023-02-10T01:09:21;103492.59;;;1.73;100.00
26489;BME280;14169;43.684;10.484;2023-02-10T01:11:47;103498.88;;;1.62;100.00
26489;BME280;14169;43.684;10.484;2023-02-10T01:14:12;103499.06;;;1.65;100.00
26489;BME280;14169;43.684;10.484;2023-02-10T01:16:37;103491.84;;;1.58;100.00
26489;BME280;14169;43.684;10.484;2023-02-10T01:19:03;103490.81;;;1.55;100.00
26489;BME280;14169;43.684;10.484;2023-02-10T01:21:29;103495.72;;;1.50;100.00
26489;BME280;14169;43.684;10.484;2023-02-10T01:23:55;103487.94;;;1.48;100.00
26489;BME280;14169;43.684;10.484;2023-02-10T01:26:21;103493.69;;;1.43;100.00
26489;BME280;14169;43.684;10.484;2023-02-10T01:28:46;103499.69;;;1.43;100.00
26489;BME280;14169;43.684;10.484;2023-02-10T01:31:15;103491.03;;;1.41;100.00
26489;BME280;14169;43.684;10.484;2023-02-10T01:33:41;103494.31;;;1.39;100.00
26489;BME280;14169;43.684;10.484;2023-02-10T01:36:17;103493.31;;;1.35;100.00
26489;BME280;14169;43.684;10.484;2023-02-10T01:38:43;103483.69;;;1.31;100.00
26489;BME280;14169;43.684;10.484;2023-02-10T01:41:11;103485.94;;;1.25;100.00
26489;BME280;14169;43.684;10.484;2023-02-10T01:43:58;103485.69;;;1.21;100.00
26489;BME280;14169;43.684;10.484;2023-02-10T01:46:26;103482.31;;;1.22;100.00
26489;BME280;14169;43.684;10.484;2023-02-10T01:48:52;103469.09;;;1.14;100.00
26489;BME280;14169;43.684;10.484;2023-02-10T01:51:19;103481.34;;;1.20;100.00
26489;BME280;14169;43.684;10.484;2023-02-10T01:53:50;103486.72;;;1.24;100.00
26489;BME280;14169;43.684;10.484;2023-02-10T01:56:16;103480.81;;;1.25;100.00
26489;BME280;14169;43.684;10.484;2023-02-10T01:58:42;103482.31;;;1.22;100.00
26489;BME280;14169;43.684;10.484;2023-02-10T02:01:09;103485.00;;;1.23;100.00
26489;BME280;14169;43.684;10.484;2023-02-10T02:03:34;103483.06;;;1.19;100.00
26489;BME280;14169;43.684;10.484;2023-02-10T02:06:01;103480.84;;;1.09;100.00
26489;BME280;14169;43.684;10.484;2023-02-10T02:08:30;103472.84;;;1.03;100.00
26489;BME280;14169;43.684;10.484;2023-02-10T02:11:12;103473.63;;;1.02;100.00
26489;BME280;14169;43.684;10.484;2023-02-10T02:33:12;103474.09;;;1.11;100.00
26489;BME280;14169;43.684;10.484;2023-02-10T02:35:48;103479.63;;;1.03;100.00
26489;BME280;14169;43.684;10.484;2023-02-10T02:38:17;103475.47;;;1.05;100.00
26489;BME280;14169;43.684;10.484;2023-02-10T02:40:42;103477.38;;;1.09;100.00
26489;BME280;14169;43.684;10.484;2023-02-10T02:43:08;103470.94;;;1.17;100.00
26489;BME280;14169;43.684;10.484;2023-02-10T02:48:27;103466.91;;;1.22;100.00
26489;BME280;14169;43.684;10.484;2023-02-10T02:51:09;103487.25;;;1.17;100.00
26489;BME280;14169;43.684;10.484;2023-02-10T02:59:29;103465.91;;;1.02;100.00
26489;BME280;14169;43.684;10.484;2023-02-10T03:01:41;103473.31;;;0.96;100.00
26489;BME280;14169;43.684;10.484;2023-02-10T03:04:07;103470.28;;;0.87;100.00
26489;BME280;14169;43.684;10.484;2023-02-10T03:06:33;103468.13;;;0.79;100.00
26489;BME280;14169;43.684;10.484;2023-02-10T03:08:59;103464.34;;;0.72;100.00
26489;BME280;14169;43.684;10.484;2023-02-10T03:11:24;103467.09;;;0.59;100.00
26489;BME280;14169;43.684;10.484;2023-02-10T03:13:50;103474.28;;;0.50;100.00
26489;BME280;14169;43.684;10.484;2023-02-10T03:16:15;103473.50;;;0.35;100.00
26489;BME280;14169;43.684;10.484;2023-02-10T03:18:41;103461.69;;;0.22;100.00
26489;BME280;14169;43.684;10.484;2023-02-10T03:21:06;103462.09;;;0.14;100.00
26489;BME280;14169;43.684;10.484;2023-02-10T03:23:31;103464.84;;;0.02;100.00
26489;BME280;14169;43.684;10.484;2023-02-10T03:25:59;103463.53;;;-0.06;100.00
26489;BME280;14169;43.684;10.484;2023-02-10T03:28:25;103465.91;;;-0.25;100.00
26489;BME280;14169;43.684;10.484;2023-02-10T03:30:50;103466.59;;;-0.28;100.00
26489;BME280;14169;43.684;10.484;2023-02-10T03:33:17;103475.09;;;-0.29;100.00
26489;BME280;14169;43.684;10.484;2023-02-10T03:35:43;103459.41;;;-0.35;100.00
26489;BME280;14169;43.684;10.484;2023-02-10T03:38:09;103468.56;;;-0.38;100.00
26489;BME280;14169;43.684;10.484;2023-02-10T03:40:35;103467.28;;;-0.46;100.00
26489;BME280;14169;43.684;10.484;2023-02-10T03:43:01;103476.97;;;-0.41;100.00
26489;BME280;14169;43.684;10.484;2023-02-10T03:45:26;103479.53;;;-0.41;100.00
26489;BME280;14169;43.684;10.484;2023-02-10T03:47:52;103479.34;;;-0.44;100.00
26489;BME280;14169;43.684;10.484;2023-02-10T03:50:17;103479.53;;;-0.41;100.00
26489;BME280;14169;43.684;10.484;2023-02-10T03:52:43;103478.81;;;-0.38;100.00
26489;BME280;14169;43.684;10.484;2023-02-10T03:55:08;103473.38;;;-0.59;100.00
26489;BME280;14169;43.684;10.484;2023-02-10T03:57:34;103484.91;;;-0.65;100.00
26489;BME280;14169;43.684;10.484;2023-02-10T04:00:00;103485.19;;;-0.61;100.00
26489;BME280;14169;43.684;10.484;2023-02-10T04:02:25;103491.28;;;-0.59;100.00
26489;BME280;14169;43.684;10.484;2023-02-10T04:04:51;103501.25;;;-0.63;100.00
26489;BME280;14169;43.684;10.484;2023-02-10T04:07:16;103486.44;;;-0.69;100.00
26489;BME280;14169;43.684;10.484;2023-02-10T04:09:42;103498.34;;;-0.69;100.00
26489;BME280;14169;43.684;10.484;2023-02-10T04:12:08;103492.69;;;-0.78;100.00
26489;BME280;14169;43.684;10.484;2023-02-10T04:14:33;103484.66;;;-0.84;100.00
26489;BME280;14169;43.684;10.484;2023-02-10T04:16:59;103495.97;;;-0.81;100.00
26489;BME280;14169;43.684;10.484;2023-02-10T04:19:25;103494.38;;;-0.79;100.00
26489;BME280;14169;43.684;10.484;2023-02-10T04:21:50;103490.84;;;-0.81;100.00
26489;BME280;14169;43.684;10.484;2023-02-10T04:24:15;103508.81;;;-0.94;100.00
26489;BME280;14169;43.684;10.484;2023-02-10T04:26:41;103500.31;;;-1.08;100.00
26489;BME280;14169;43.684;10.484;2023-02-10T04:29:06;103507.63;;;-1.14;100.00
26489;BME280;14169;43.684;10.484;2023-02-10T04:31:32;103501.53;;;-1.16;100.00
26489;BME280;14169;43.684;10.484;2023-02-10T04:33:57;103510.00;;;-1.17;100.00
26489;BME280;14169;43.684;10.484;2023-02-10T04:36:23;103507.97;;;-1.22;100.00
26489;BME280;14169;43.684;10.484;2023-02-10T04:38:48;103494.22;;;-1.24;100.00
26489;BME280;14169;43.684;10.484;2023-02-10T04:41:13;103505.91;;;-1.28;100.00
26489;BME280;14169;43.684;10.484;2023-02-10T04:43:39;103507.25;;;-1.34;100.00
26489;BME280;14169;43.684;10.484;2023-02-10T04:46:04;103498.31;;;-1.41;100.00
26489;BME280;14169;43.684;10.484;2023-02-10T04:48:30;103493.72;;;-1.46;100.00
26489;BME280;14169;43.684;10.484;2023-02-10T04:50:56;103492.53;;;-1.51;100.00
26489;BME280;14169;43.684;10.484;2023-02-10T04:53:21;103490.06;;;-1.50;100.00
26489;BME280;14169;43.684;10.484;2023-02-10T04:55:47;103503.66;;;-1.51;100.00
26489;BME280;14169;43.684;10.484;2023-02-10T04:58:12;103506.94;;;-1.66;100.00
26489;BME280;14169;43.684;10.484;2023-02-10T05:00:38;103505.16;;;-1.67;100.00
26489;BME280;14169;43.684;10.484;2023-02-10T05:03:03;103500.13;;;-1.66;100.00
26489;BME280;14169;43.684;10.484;2023-02-10T05:05:29;103496.59;;;-1.68;100.00
26489;BME280;14169;43.684;10.484;2023-02-10T05:07:54;103503.50;;;-1.67;100.00
26489;BME280;14169;43.684;10.484;2023-02-10T05:10:20;103504.97;;;-1.83;100.00
26489;BME280;14169;43.684;10.484;2023-02-10T05:12:46;103509.41;;;-1.81;100.00
26489;BME280;14169;43.684;10.484;2023-02-10T05:15:12;103500.97;;;-1.80;100.00
26489;BME280;14169;43.684;10.484;2023-02-10T05:17:39;103495.16;;;-1.77;100.00
26489;BME280;14169;43.684;10.484;2023-02-10T05:20:05;103505.38;;;-1.77;100.00
26489;BME280;14169;43.684;10.484;2023-02-10T05:22:30;103514.72;;;-1.78;100.00
26489;BME280;14169;43.684;10.484;2023-02-10T05:24:56;103504.00;;;-1.72;100.00
26489;BME280;14169;43.684;10.484;2023-02-10T05:27:24;103500.13;;;-1.66;100.00
26489;BME280;14169;43.684;10.484;2023-02-10T05:29:49;103513.63;;;-1.68;100.00
26489;BME280;14169;43.684;10.484;2023-02-10T05:32:15;103514.72;;;-1.78;100.00
26489;BME280;14169;43.684;10.484;2023-02-10T05:34:40;103510.00;;;-1.85;100.00
26489;BME280;14169;43.684;10.484;2023-02-10T05:37:05;103515.41;;;-1.93;100.00
26489;BME280;14169;43.684;10.484;2023-02-10T05:39:31;103504.81;;;-2.00;100.00
26489;BME280;14169;43.684;10.484;2023-02-10T05:41:57;103514.34;;;-1.97;100.00
26489;BME280;14169;43.684;10.484;2023-02-10T05:44:24;103524.66;;;-1.96;100.00
26489;BME280;14169;43.684;10.484;2023-02-10T05:46:51;103529.66;;;-1.97;100.00
26489;BME280;14169;43.684;10.484;2023-02-10T05:49:16;103526.72;;;-2.03;100.00
26489;BME280;14169;43.684;10.484;2023-02-10T05:51:42;103530.84;;;-2.05;100.00
26489;BME280;14169;43.684;10.484;2023-02-10T05:54:08;103529.28;;;-2.03;100.00
26489;BME280;14169;43.684;10.484;2023-02-10T05:56:34;103528.50;;;-2.02;100.00
26489;BME280;14169;43.684;10.484;2023-02-10T05:58:59;103532.72;;;-2.03;100.00
26489;BME280;14169;43.684;10.484;2023-02-10T06:01:25;103541.34;;;-2.01;100.00
26489;BME280;14169;43.684;10.484;2023-02-10T06:03:50;103554.13;;;-2.01;100.00
26489;BME280;14169;43.684;10.484;2023-02-10T06:06:16;103555.22;;;-2.10;100.00
26489;BME280;14169;43.684;10.484;2023-02-10T06:08:42;103557.75;;;-2.10;100.00
26489;BME280;14169;43.684;10.484;2023-02-10T06:11:07;103562.38;;;-2.05;100.00
26489;BME280;14169;43.684;10.484;2023-02-10T06:13:33;103571.09;;;-2.01;100.00
26489;BME280;14169;43.684;10.484;2023-02-10T06:15:59;103572.59;;;-2.05;100.00
26489;BME280;14169;43.684;10.484;2023-02-10T06:18:30;103577.38;;;-2.09;100.00
26489;BME280;14169;43.684;10.484;2023-02-10T06:20:56;103573.19;;;-2.09;100.00
26489;BME280;14169;43.684;10.484;2023-02-10T06:23:22;103573.94;;;-2.10;100.00
26489;BME280;14169;43.684;10.484;2023-02-10T06:25:48;103581.31;;;-2.01;100.00
26489;BME280;14169;43.684;10.484;2023-02-10T06:28:14;103587.72;;;-1.94;100.00
26489;BME280;14169;43.684;10.484;2023-02-10T06:30:40;103593.59;;;-1.96;100.00
26489;BME280;14169;43.684;10.484;2023-02-10T06:33:06;103599.09;;;-2.03;100.00
26489;BME280;14169;43.684;10.484;2023-02-10T06:35:31;103600.09;;;-2.01;100.00
26489;BME280;14169;43.684;10.484;2023-02-10T06:37:59;103601.25;;;-2.09;100.00
26489;BME280;14169;43.684;10.484;2023-02-10T06:40:25;103592.22;;;-2.04;100.00
26489;BME280;14169;43.684;10.484;2023-02-10T06:42:50;103597.94;;;-1.94;100.00
26489;BME280;14169;43.684;10.484;2023-02-10T06:45:15;103594.72;;;-1.92;100.00
26489;BME280;14169;43.684;10.484;2023-02-10T06:47:41;103604.03;;;-1.92;100.00
26489;BME280;14169;43.684;10.484;2023-02-10T06:50:06;103608.84;;;-1.84;100.00
26489;BME280;14169;43.684;10.484;2023-02-10T06:52:32;103603.72;;;-1.71;100.00
26489;BME280;14169;43.684;10.484;2023-02-10T06:55:00;103607.94;;;-1.58;100.00
26489;BME280;14169;43.684;10.484;2023-02-10T06:57:25;103605.38;;;-1.45;100.00
26489;BME280;14169;43.684;10.484;2023-02-10T06:59:51;103611.63;;;-1.27;100.00
26489;BME280;14169;43.684;10.484;2023-02-10T07:02:18;103614.94;;;-1.15;100.00
26489;BME280;14169;43.684;10.484;2023-02-10T07:04:43;103612.59;;;-1.12;100.00
26489;BME280;14169;43.684;10.484;2023-02-10T07:07:09;103612.94;;;-1.06;100.00
26489;BME280;14169;43.684;10.484;2023-02-10T07:09:34;103613.09;;;-0.90;100.00
26489;BME280;14169;43.684;10.484;2023-02-10T07:11:59;103611.25;;;-0.78;100.00
26489;BME280;14169;43.684;10.484;2023-02-10T07:14:25;103622.16;;;-0.67;100.00
26489;BME280;14169;43.684;10.484;2023-02-10T07:16:51;103608.06;;;-0.61;100.00
26489;BME280;14169;43.684;10.484;2023-02-10T07:19:16;103616.88;;;-0.56;100.00
26489;BME280;14169;43.684;10.484;2023-02-10T07:21:42;103612.13;;;-0.50;100.00
26489;BME280;14169;43.684;10.484;2023-02-10T07:24:07;103612.56;;;-0.42;100.00
26489;BME280;14169;43.684;10.484;2023-02-10T07:26:33;103609.75;;;-0.32;100.00
26489;BME280;14169;43.684;10.484;2023-02-10T07:28:59;103610.09;;;-0.26;100.00
26489;BME280;14169;43.684;10.484;2023-02-10T07:31:24;103604.63;;;-0.17;100.00
26489;BME280;14169;43.684;10.484;2023-02-10T07:33:49;103603.75;;;-0.03;100.00
26489;BME280;14169;43.684;10.484;2023-02-10T07:36:15;103604.28;;;0.06;100.00
26489;BME280;14169;43.684;10.484;2023-02-10T07:38:40;103609.13;;;0.16;100.00
26489;BME280;14169;43.684;10.484;2023-02-10T07:41:06;103611.72;;;0.32;100.00
26489;BME280;14169;43.684;10.484;2023-02-10T07:43:33;103616.69;;;0.43;100.00
26489;BME280;14169;43.684;10.484;2023-02-10T07:45:58;103613.63;;;0.50;100.00
26489;BME280;14169;43.684;10.484;2023-02-10T07:48:24;103615.34;;;0.66;100.00
26489;BME280;14169;43.684;10.484;2023-02-10T07:50:49;103615.06;;;0.76;100.00
26489;BME280;14169;43.684;10.484;2023-02-10T07:53:17;103614.03;;;0.89;100.00
26489;BME280;14169;43.684;10.484;2023-02-10T07:55:43;103610.66;;;0.90;100.00
26489;BME280;14169;43.684;10.484;2023-02-10T07:58:08;103616.13;;;0.96;100.00
26489;BME280;14169;43.684;10.484;2023-02-10T08:00:34;103614.84;;;1.04;100.00
26489;BME280;14169;43.684;10.484;2023-02-10T08:02:59;103610.28;;;1.14;100.00
26489;BME280;14169;43.684;10.484;2023-02-10T08:05:25;103614.38;;;1.27;100.00
26489;BME280;14169;43.684;10.484;2023-02-10T08:07:51;103609.16;;;1.41;100.00
26489;BME280;14169;43.684;10.484;2023-02-10T08:10:17;103607.44;;;1.58;100.00
26489;BME280;14169;43.684;10.484;2023-02-10T08:12:43;103606.50;;;1.74;100.00
26489;BME280;14169;43.684;10.484;2023-02-10T08:15:09;103611.59;;;1.90;100.00
26489;BME280;14169;43.684;10.484;2023-02-10T08:17:34;103616.19;;;1.95;100.00
26489;BME280;14169;43.684;10.484;2023-02-10T08:20:02;103617.81;;;2.11;100.00
26489;BME280;14169;43.684;10.484;2023-02-10T08:22:27;103617.59;;;2.24;100.00
26489;BME280;14169;43.684;10.484;2023-02-10T08:24:53;103620.09;;;2.40;100.00
26489;BME280;14169;43.684;10.484;2023-02-10T08:27:18;103625.66;;;2.67;100.00
26489;BME280;14169;43.684;10.484;2023-02-10T08:29:44;103627.75;;;2.93;100.00
26489;BME280;14169;43.684;10.484;2023-02-10T08:32:09;103628.09;;;3.00;100.00
26489;BME280;14169;43.684;10.484;2023-02-10T08:34:34;103620.44;;;3.21;100.00
26489;BME280;14169;43.684;10.484;2023-02-10T08:37:02;103625.78;;;3.45;100.00
26489;BME280;14169;43.684;10.484;2023-02-10T08:39:28;103625.53;;;3.59;100.00
26489;BME280;14169;43.684;10.484;2023-02-10T08:41:54;103617.06;;;3.81;100.00
26489;BME280;14169;43.684;10.484;2023-02-10T08:44:19;103613.50;;;3.99;100.00
26489;BME280;14169;43.684;10.484;2023-02-10T08:46:45;103616.53;;;4.31;100.00
26489;BME280;14169;43.684;10.484;2023-02-10T08:49:10;103612.94;;;4.49;100.00
26489;BME280;14169;43.684;10.484;2023-02-10T08:51:36;103609.56;;;4.72;100.00
26489;BME280;14169;43.684;10.484;2023-02-10T08:54:04;103614.84;;;4.97;100.00
26489;BME280;14169;43.684;10.484;2023-02-10T08:56:29;103616.47;;;5.18;100.00
26489;BME280;14169;43.684;10.484;2023-02-10T08:58:55;103624.00;;;5.35;100.00
26489;BME280;14169;43.684;10.484;2023-02-10T09:01:24;103617.28;;;5.64;100.00
26489;BME280;14169;43.684;10.484;2023-02-10T09:03:51;103624.69;;;5.78;100.00
26489;BME280;14169;43.684;10.484;2023-02-10T09:06:21;103620.66;;;5.87;100.00
26489;BME280;14169;43.684;10.484;2023-02-10T09:08:47;103627.22;;;6.02;100.00
26489;BME280;14169;43.684;10.484;2023-02-10T09:11:16;103628.97;;;6.30;100.00
26489;BME280;14169;43.684;10.484;2023-02-10T09:13:42;103634.78;;;6.49;100.00
26489;BME280;14169;43.684;10.484;2023-02-10T09:16:08;103634.22;;;6.88;100.00
26489;BME280;14169;43.684;10.484;2023-02-10T09:18:33;103635.13;;;7.16;100.00
26489;BME280;14169;43.684;10.484;2023-02-10T09:21:00;103639.13;;;7.36;100.00
26489;BME280;14169;43.684;10.484;2023-02-10T09:23:26;103635.84;;;7.42;100.00
26489;BME280;14169;43.684;10.484;2023-02-10T09:25:58;103637.00;;;7.53;100.00
26489;BME280;14169;43.684;10.484;2023-02-10T09:28:24;103646.72;;;7.60;96.94
26489;BME280;14169;43.684;10.484;2023-02-10T09:30:49;103642.88;;;7.79;95.32
26489;BME280;14169;43.684;10.484;2023-02-10T09:33:16;103636.50;;;8.00;93.27
26489;BME280;14169;43.684;10.484;2023-02-10T09:35:41;103640.28;;;8.11;89.63
26489;BME280;14169;43.684;10.484;2023-02-10T09:38:09;103639.03;;;8.31;86.90
26489;BME280;14169;43.684;10.484;2023-02-10T09:46:05;103640.66;;;9.01;78.19
26489;BME280;14169;43.684;10.484;2023-02-10T09:54:11;103648.97;;;9.27;68.29
26489;BME280;14169;43.684;10.484;2023-02-10T09:56:37;103643.78;;;9.70;68.54
26489;BME280;14169;43.684;10.484;2023-02-10T09:59:06;103649.91;;;9.75;65.93
26489;BME280;14169;43.684;10.484;2023-02-10T10:01:45;103639.75;;;9.90;64.42
26489;BME280;14169;43.684;10.484;2023-02-10T10:04:17;103640.97;;;10.08;62.86
26489;BME280;14169;43.684;10.484;2023-02-10T10:06:45;103634.34;;;10.29;60.62
26489;BME280;14169;43.684;10.484;2023-02-10T10:09:32;103636.34;;;10.45;58.12
26489;BME280;14169;43.684;10.484;2023-02-10T10:12:01;103634.66;;;10.50;55.75
26489;BME280;14169;43.684;10.484;2023-02-10T10:14:29;103627.88;;;10.58;55.13
26489;BME280;14169;43.684;10.484;2023-02-10T10:17:36;103628.16;;;10.77;53.69
26489;BME280;14169;43.684;10.484;2023-02-10T10:31:14;103615.31;;;11.67;46.98
26489;BME280;14169;43.684;10.484;2023-02-10T10:36:15;103604.19;;;11.93;46.67
26489;BME280;14169;43.684;10.484;2023-02-10T10:38:45;103597.34;;;11.99;46.13
26489;BME280;14169;43.684;10.484;2023-02-10T10:41:13;103594.91;;;12.25;45.61
26489;BME280;14169;43.684;10.484;2023-02-10T10:43:46;103600.38;;;12.64;45.78
26489;BME280;14169;43.684;10.484;2023-02-10T10:46:45;103601.44;;;13.11;43.44
26489;BME280;14169;43.684;10.484;2023-02-10T10:49:12;103592.00;;;13.53;41.10
26489;BME280;14169;43.684;10.484;2023-02-10T10:51:37;103590.25;;;13.58;39.58
26489;BME280;14169;43.684;10.484;2023-02-10T10:54:05;103589.41;;;13.72;38.88
26489;BME280;14169;43.684;10.484;2023-02-10T10:56:38;103597.25;;;13.65;37.72
26489;BME280;14169;43.684;10.484;2023-02-10T10:59:13;103585.91;;;13.96;37.79
26489;BME280;14169;43.684;10.484;2023-02-10T11:01:41;103579.78;;;13.98;36.16
26489;BME280;14169;43.684;10.484;2023-02-10T11:04:19;103573.66;;;13.75;35.71
26489;BME280;14169;43.684;10.484;2023-02-10T11:06:48;103571.94;;;13.73;35.39
26489;BME280;14169;43.684;10.484;2023-02-10T11:09:23;103566.69;;;14.03;36.43
26489;BME280;14169;43.684;10.484;2023-02-10T11:11:53;103578.91;;;14.39;36.34
26489;BME280;14169;43.684;10.484;2023-02-10T11:14:23;103581.50;;;14.46;36.03
26489;BME280;14169;43.684;10.484;2023-02-10T11:16:53;103584.09;;;14.63;35.30
26489;BME280;14169;43.684;10.484;2023-02-10T11:19:24;103581.53;;;14.25;34.44
26489;BME280;14169;43.684;10.484;2023-02-10T11:21:51;103571.94;;;14.09;34.04
26489;BME280;14169;43.684;10.484;2023-02-10T11:24:23;103568.38;;;14.46;35.32
26489;BME280;14169;43.684;10.484;2023-02-10T11:29:23;103554.97;;;15.12;34.40
26489;BME280;14169;43.684;10.484;2023-02-10T11:31:52;103547.25;;;14.84;33.81
26489;BME280;14169;43.684;10.484;2023-02-10T11:34:45;103554.34;;;14.58;33.89
26489;BME280;14169;43.684;10.484;2023-02-10T11:37:16;103547.25;;;14.88;34.66
26489;BME280;14169;43.684;10.484;2023-02-10T11:39:45;103537.53;;;15.01;34.03
26489;BME280;14169;43.684;10.484;2023-02-10T11:42:20;103533.13;;;15.07;34.05
26489;BME280;14169;43.684;10.484;2023-02-10T11:44:58;103535.66;;;15.23;33.95
26489;BME280;14169;43.684;10.484;2023-02-10T11:47:27;103528.59;;;15.31;33.26
26489;BME280;14169;43.684;10.484;2023-02-10T11:49:53;103525.97;;;15.32;32.61
26489;BME280;14169;43.684;10.484;2023-02-10T11:52:20;103526.56;;;15.72;32.27
26489;BME280;14169;43.684;10.484;2023-02-10T11:54:48;103519.53;;;15.74;31.28
26489;BME280;14169;43.684;10.484;2023-02-10T11:57:26;103528.50;;;15.49;30.06
26489;BME280;14169;43.684;10.484;2023-02-10T12:00:33;103522.31;;;15.59;29.90
26489;BME280;14169;43.684;10.484;2023-02-10T12:06:05;103521.16;;;15.88;28.95
26489;BME280;14169;43.684;10.484;2023-02-10T12:16:15;103510.72;;;16.60;29.25
26489;BME280;14169;43.684;10.484;2023-02-10T12:24:22;103488.34;;;16.21;25.89
26489;BME280;14169;43.684;10.484;2023-02-10T12:26:59;103476.50;;;15.81;25.29
26489;BME280;14169;43.684;10.484;2023-02-10T12:32:30;103465.59;;;16.19;25.09
26489;BME280;14169;43.684;10.484;2023-02-10T12:43:29;103462.47;;;15.86;24.99
26489;BME280;14169;43.684;10.484;2023-02-10T12:54:00;103447.53;;;15.88;25.75
26489;BME280;14169;43.684;10.484;2023-02-10T12:56:51;103439.31;;;16.19;25.75
26489;BME280;14169;43.684;10.484;2023-02-10T12:59:21;103444.53;;;16.87;25.97
26489;BME280;14169;43.684;10.484;2023-02-10T13:01:55;103421.97;;;17.26;25.39
26489;BME280;14169;43.684;10.484;2023-02-10T13:04:43;103413.38;;;18.09;25.03
26489;BME280;14169;43.684;10.484;2023-02-10T13:12:27;103405.09;;;19.04;24.72
26489;BME280;14169;43.684;10.484;2023-02-10T13:15:02;103394.53;;;19.02;24.91
26489;BME280;14169;43.684;10.484;2023-02-10T13:17:45;103395.19;;;19.47;24.90
26489;BME280;14169;43.684;10.484;2023-02-10T13:34:30;103385.16;;;19.27;24.88
26489;BME280;14169;43.684;10.484;2023-02-10T13:37:12;103382.41;;;19.30;25.06
26489;BME280;14169;43.684;10.484;2023-02-10T13:39:48;103380.81;;;18.88;24.64
26489;BME280;14169;43.684;10.484;2023-02-10T13:44:59;103375.03;;;18.34;24.57
26489;BME280;14169;43.684;10.484;2023-02-10T13:55:46;103373.88;;;20.14;23.83
26489;BME280;14169;43.684;10.484;2023-02-10T14:00:46;103371.34;;;20.11;23.77
26489;BME280;14169;43.684;10.484;2023-02-10T14:05:50;103371.28;;;20.13;24.16
26489;BME280;14169;43.684;10.484;2023-02-10T14:08:42;103368.63;;;20.42;24.13
26489;BME280;14169;43.684;10.484;2023-02-10T14:13:41;103362.03;;;20.28;24.62
26489;BME280;14169;43.684;10.484;2023-02-10T14:18:59;103363.41;;;21.21;24.43
26489;BME280;14169;43.684;10.484;2023-02-10T14:21:26;103361.03;;;20.87;23.51
26489;BME280;14169;43.684;10.484;2023-02-10T14:24:02;103367.84;;;20.39;24.10
26489;BME280;14169;43.684;10.484;2023-02-10T14:26:35;103355.31;;;19.85;24.07
26489;BME280;14169;43.684;10.484;2023-02-10T14:29:01;103355.25;;;19.58;25.10
26489;BME280;14169;43.684;10.484;2023-02-10T14:31:30;103360.13;;;19.71;24.80
26489;BME280;14169;43.684;10.484;2023-02-10T14:34:04;103344.63;;;20.19;24.78
26489;BME280;14169;43.684;10.484;2023-02-10T14:36:29;103358.97;;;19.81;24.22
26489;BME280;14169;43.684;10.484;2023-02-10T14:38:57;103359.84;;;20.40;24.15
26489;BME280;14169;43.684;10.484;2023-02-10T14:41:25;103359.63;;;20.48;24.08
26489;BME280;14169;43.684;10.484;2023-02-10T14:43:51;103356.81;;;20.25;24.72
26489;BME280;14169;43.684;10.484;2023-02-10T14:46:29;103349.78;;;19.94;24.90
26489;BME280;14169;43.684;10.484;2023-02-10T14:49:01;103348.78;;;19.98;25.51
26489;BME280;14169;43.684;10.484;2023-02-10T14:51:28;103356.97;;;19.89;25.42
26489;BME280;14169;43.684;10.484;2023-02-10T14:53:54;103354.69;;;19.45;25.96